createdAt,value
2018-05-26T00:00:44.503Z,6.80
2018-05-26T00:01:44.562Z,6.70
2018-05-26T00:02:44.542Z,6.40
2018-05-26T00:03:44.538Z,6.80
2018-05-26T00:04:44.528Z,6.60
2018-05-26T00:05:44.539Z,7.30
2018-05-26T00:06:45.084Z,6.80
2018-05-26T00:07:44.525Z,7.10
2018-05-26T00:08:44.528Z,6.80
2018-05-26T00:09:45.125Z,7.30
2018-05-26T00:10:44.528Z,6.90
2018-05-26T00:11:44.595Z,6.80
2018-05-26T00:12:44.491Z,7.10
2018-05-26T00:13:45.164Z,7.40
2018-05-26T00:14:44.571Z,7.70
2018-05-26T00:15:44.446Z,7.10
2018-05-26T00:16:44.485Z,7.60
2018-05-26T00:17:44.482Z,7.50
2018-05-26T00:18:44.972Z,7.30
2018-05-26T00:19:44.535Z,7.10
2018-05-26T00:20:44.460Z,7.30
2018-05-26T00:21:44.568Z,7.30
2018-05-26T00:22:44.478Z,7.10
2018-05-26T00:23:44.518Z,7.40
2018-05-26T00:24:45.101Z,6.60
2018-05-26T00:25:44.408Z,6.90
2018-05-26T00:26:44.427Z,7.30
2018-05-26T00:27:44.405Z,7.50
2018-05-26T00:28:44.554Z,7.40
2018-05-26T00:29:44.422Z,7.30
2018-05-26T00:30:44.432Z,7.70
2018-05-26T00:31:44.478Z,8.00
2018-05-26T00:32:44.461Z,7.70
2018-05-26T00:33:44.440Z,7.90
2018-05-26T00:34:44.517Z,7.70
2018-05-26T00:35:44.467Z,7.90
2018-05-26T00:36:44.378Z,8.20
2018-05-26T00:37:45.063Z,8.10
2018-05-26T00:38:44.444Z,8.40
2018-05-26T00:39:44.407Z,7.60
2018-05-26T00:40:44.437Z,8.00
2018-05-26T00:41:45.137Z,8.10
2018-05-26T00:42:44.448Z,8.30
2018-05-26T00:43:44.354Z,8.40
2018-05-26T00:44:44.447Z,8.10
2018-05-26T00:45:44.333Z,7.90
2018-05-26T00:46:44.408Z,7.80
2018-05-26T00:47:44.432Z,8.10
2018-05-26T00:48:44.356Z,8.10
2018-05-26T00:49:44.405Z,8.40
2018-05-26T00:50:44.332Z,8.60
2018-05-26T00:51:45.152Z,8.10
2018-05-26T00:52:44.345Z,8.30
2018-05-26T00:53:45.084Z,8.40
2018-05-26T00:54:44.354Z,9.20
2018-05-26T00:55:44.414Z,8.60
2018-05-26T00:56:44.385Z,9.00
2018-05-26T00:57:44.356Z,8.30
2018-05-26T00:58:44.380Z,8.30
2018-05-26T00:59:44.385Z,8.20
2018-05-26T01:00:44.291Z,8.50
2018-05-26T01:01:44.318Z,8.90
2018-05-26T01:02:44.428Z,8.20
2018-05-26T01:03:44.386Z,8.10
2018-05-26T01:04:44.984Z,8.70
2018-05-26T01:05:44.350Z,8.30
2018-05-26T01:06:44.277Z,8.80
2018-05-26T01:07:45.089Z,8.00
2018-05-26T01:08:44.348Z,7.70
2018-05-26T01:09:45.103Z,8.00
2018-05-26T01:10:44.295Z,8.50
2018-05-26T01:11:44.348Z,8.50
2018-05-26T01:12:44.294Z,8.80
2018-05-26T01:13:44.418Z,8.10
2018-05-26T01:14:44.329Z,8.50
2018-05-26T01:15:45.122Z,8.10
2018-05-26T01:16:44.337Z,8.50
2018-05-26T01:17:44.293Z,8.40
2018-05-26T01:18:44.380Z,9.00
2018-05-26T01:19:44.323Z,9.10
2018-05-26T01:20:44.335Z,9.60
2018-05-26T01:21:44.256Z,9.20
2018-05-26T01:22:44.321Z,10.20
2018-05-26T01:23:44.279Z,9.90
2018-05-26T01:24:44.279Z,9.70
2018-05-26T01:25:44.251Z,10.00
2018-05-26T01:26:44.269Z,10.10
2018-05-26T01:27:44.212Z,10.20
2018-05-26T01:28:44.287Z,9.50
2018-05-26T01:29:44.210Z,9.80
2018-05-26T01:30:44.210Z,10.30
2018-05-26T02:03:57.999Z,8.20
2018-05-26T02:04:57.968Z,12.60
2018-05-26T02:06:50.876Z,13.70
2018-05-26T02:07:50.859Z,13.70
2018-05-26T02:08:50.859Z,13.70
2018-05-26T02:09:50.852Z,13.20
2018-05-26T02:10:50.841Z,12.30
2018-05-26T02:11:50.826Z,12.60
2018-05-26T02:12:50.826Z,13.20
2018-05-26T02:13:50.814Z,13.00
2018-05-26T02:14:50.812Z,13.40
2018-05-26T02:15:50.804Z,12.50
2018-05-26T02:16:50.796Z,12.70
2018-05-26T02:17:50.795Z,11.80
2018-05-26T02:18:50.794Z,12.60
2018-05-26T02:19:50.808Z,12.70
2018-05-26T02:20:50.778Z,12.90
2018-05-26T02:21:50.784Z,12.90
2018-05-26T02:22:50.817Z,12.00
2018-05-26T02:23:50.769Z,12.60
2018-05-26T02:24:50.764Z,12.40
2018-05-26T02:25:50.761Z,12.50
2018-05-26T02:26:50.822Z,12.10
2018-05-26T02:27:50.754Z,12.10
2018-05-26T02:28:50.796Z,12.50
2018-05-26T02:29:50.740Z,12.70
2018-05-26T02:30:50.741Z,12.50
2018-05-26T02:31:50.742Z,11.70
2018-05-26T02:32:50.734Z,12.40
2018-05-26T02:33:50.731Z,12.80
2018-05-26T02:34:50.728Z,12.70
2018-05-26T02:35:50.723Z,13.00
2018-05-26T02:36:50.722Z,12.70
2018-05-26T02:37:50.716Z,12.60
2018-05-26T02:38:50.711Z,13.00
2018-05-26T02:39:50.709Z,12.90
2018-05-26T02:40:50.704Z,13.10
2018-05-26T02:41:50.715Z,13.00
2018-05-26T02:42:50.718Z,13.40
2018-05-26T02:43:50.691Z,13.20
2018-05-26T02:44:50.692Z,13.70
2018-05-26T02:45:50.692Z,13.60
2018-05-26T02:46:50.684Z,13.20
2018-05-26T02:47:50.676Z,13.00
2018-05-26T02:48:50.679Z,13.10
2018-05-26T02:49:50.661Z,14.20
2018-05-26T02:50:50.660Z,13.50
2018-05-26T02:51:50.664Z,14.20
2018-05-26T02:52:50.670Z,14.60
2018-05-26T02:53:50.663Z,15.30
2018-05-26T02:54:50.650Z,14.70
2018-05-26T02:55:50.644Z,14.40
2018-05-26T02:56:50.705Z,14.80
2018-05-26T02:57:50.638Z,14.70
2018-05-26T02:58:50.636Z,15.00
2018-05-26T02:59:50.628Z,15.60
2018-05-26T03:00:50.679Z,15.30
2018-05-26T03:01:50.633Z,15.10
2018-05-26T03:02:50.624Z,15.40
2018-05-26T03:03:50.633Z,15.20
2018-05-26T03:04:50.613Z,15.70
2018-05-26T03:05:50.614Z,15.30
2018-05-26T03:06:50.625Z,15.90
2018-05-26T03:07:50.597Z,15.70
2018-05-26T03:08:50.603Z,15.80
2018-05-26T03:09:50.589Z,16.30
2018-05-26T03:10:50.592Z,15.80
2018-05-26T03:11:50.593Z,17.20
2018-05-26T03:12:50.590Z,16.00
2018-05-26T03:13:50.587Z,16.30
2018-05-26T03:14:50.578Z,16.90
2018-05-26T03:15:50.591Z,18.00
2018-05-26T03:16:50.568Z,16.70
2018-05-26T03:17:50.572Z,16.50
2018-05-26T03:18:50.562Z,17.40
2018-05-26T03:19:50.561Z,16.80
2018-05-26T03:20:50.558Z,17.00
2018-05-26T03:21:50.552Z,16.90
2018-05-26T03:22:50.556Z,15.70
2018-05-26T03:23:50.558Z,16.70
2018-05-26T03:24:50.535Z,16.30
2018-05-26T03:25:50.573Z,17.30
2018-05-26T03:26:50.583Z,16.40
2018-05-26T03:27:50.531Z,16.60
2018-05-26T03:28:50.527Z,17.30
2018-05-26T03:29:50.517Z,17.10
2018-05-26T03:30:50.511Z,19.00
2018-05-26T03:31:50.532Z,17.10
2018-05-26T03:32:50.513Z,17.00
2018-05-26T03:33:50.509Z,17.30
2018-05-26T03:34:50.521Z,17.00
2018-05-26T03:35:50.499Z,16.90
2018-05-26T03:36:50.500Z,17.20
2018-05-26T03:37:50.487Z,16.90
2018-05-26T03:38:50.501Z,17.30
2018-05-26T03:39:50.501Z,17.50
2018-05-26T03:40:50.497Z,16.60
2018-05-26T03:41:50.471Z,16.50
2018-05-26T03:42:50.471Z,16.40
2018-05-26T03:43:50.476Z,17.10
2018-05-26T03:44:50.469Z,16.40
2018-05-26T03:45:50.463Z,17.30
2018-05-26T03:46:50.474Z,16.40
2018-05-26T03:47:50.449Z,16.40
2018-05-26T03:48:50.453Z,17.10
2018-05-26T03:49:50.452Z,17.10
2018-05-26T03:50:50.454Z,17.20
2018-05-26T03:51:50.458Z,17.20
2018-05-26T03:52:50.444Z,17.10
2018-05-26T03:53:50.432Z,17.40
2018-05-26T03:54:50.430Z,17.80
2018-05-26T03:55:50.433Z,17.50
2018-05-26T03:56:50.514Z,16.80
2018-05-26T03:57:50.414Z,17.10
2018-05-26T03:58:50.413Z,17.30
2018-05-26T03:59:50.414Z,17.50
2018-05-26T04:00:50.411Z,17.50
2018-05-26T04:01:50.451Z,17.30
2018-05-26T04:02:50.394Z,18.20
2018-05-26T04:03:50.402Z,17.60
2018-05-26T04:04:50.393Z,18.00
2018-05-26T04:05:50.434Z,17.80
2018-05-26T04:06:50.384Z,18.10
2018-05-26T04:07:50.383Z,17.80
2018-05-26T04:08:50.395Z,17.60
2018-05-26T04:09:50.374Z,18.00
2018-05-26T04:10:50.393Z,17.30
2018-05-26T04:11:50.374Z,17.30
2018-05-26T04:12:50.370Z,17.00
2018-05-26T04:13:50.364Z,17.30
2018-05-26T04:14:50.359Z,16.60
2018-05-26T04:15:50.369Z,16.50
2018-05-26T04:16:50.357Z,16.70
2018-05-26T04:17:50.347Z,17.30
2018-05-26T04:18:50.352Z,16.20
2018-05-26T04:19:50.346Z,15.90
2018-05-26T04:20:50.361Z,16.40
2018-05-26T04:21:50.342Z,15.20
2018-05-26T04:22:50.387Z,15.20
2018-05-26T04:23:50.333Z,15.00
2018-05-26T04:24:50.333Z,15.50
2018-05-26T04:25:50.336Z,14.70
2018-05-26T04:26:50.364Z,14.10
2018-05-26T04:27:50.323Z,15.40
2018-05-26T04:28:50.317Z,14.60
2018-05-26T04:29:50.316Z,14.80
2018-05-26T04:30:50.318Z,14.30
2018-05-26T04:31:50.316Z,14.30
2018-05-26T04:32:50.336Z,13.40
2018-05-26T04:33:50.372Z,13.40
2018-05-26T04:34:50.306Z,13.80
2018-05-26T04:35:50.303Z,13.00
2018-05-26T04:36:50.298Z,13.10
2018-05-26T04:37:50.310Z,13.40
2018-05-26T04:38:50.307Z,13.70
2018-05-26T04:39:50.298Z,13.20
2018-05-26T04:40:50.292Z,12.90
2018-05-26T04:41:50.293Z,12.90
2018-05-26T04:42:50.287Z,12.40
2018-05-26T04:43:50.285Z,13.40
2018-05-26T04:44:50.288Z,12.90
2018-05-26T04:45:50.283Z,12.60
2018-05-26T04:46:50.279Z,12.00
2018-05-26T04:47:50.278Z,12.50
2018-05-26T04:48:50.278Z,12.20
2018-05-26T04:49:50.281Z,13.20
2018-05-26T04:50:50.274Z,12.90
2018-05-26T04:51:50.306Z,12.40
2018-05-26T04:52:50.282Z,12.60
2018-05-26T04:53:50.266Z,12.60
2018-05-26T04:54:50.263Z,12.90
2018-05-26T04:55:50.262Z,12.90
2018-05-26T04:56:50.314Z,13.00
2018-05-26T04:57:50.263Z,12.90
2018-05-26T04:58:50.255Z,12.40
2018-05-26T04:59:50.249Z,12.40
2018-05-26T05:00:50.253Z,12.60
2018-05-26T05:01:50.251Z,12.60
2018-05-26T05:02:50.252Z,12.70
2018-05-26T05:03:50.261Z,12.20
2018-05-26T05:04:50.270Z,11.80
2018-05-26T05:05:50.275Z,12.50
2018-05-26T05:06:50.243Z,12.40
2018-05-26T05:07:50.264Z,12.60
2018-05-26T05:08:50.256Z,11.80
2018-05-26T05:09:50.245Z,12.10
2018-05-26T05:10:50.235Z,11.90
2018-05-26T05:11:50.223Z,11.40
2018-05-26T05:12:50.222Z,11.80
2018-05-26T05:13:50.229Z,11.90
2018-05-26T05:14:50.235Z,11.80
2018-05-26T05:15:50.240Z,12.40
2018-05-26T05:16:50.233Z,12.10
2018-05-26T05:17:50.234Z,11.70
2018-05-26T05:18:50.229Z,11.70
2018-05-26T05:19:50.227Z,11.70
2018-05-26T05:20:50.234Z,11.30
2018-05-26T05:21:50.220Z,11.00
2018-05-26T05:22:50.276Z,11.50
2018-05-26T05:23:50.220Z,11.50
2018-05-26T05:24:50.214Z,11.70
2018-05-26T05:25:50.243Z,10.50
2018-05-26T05:26:50.249Z,11.80
2018-05-26T05:27:50.222Z,11.30
2018-05-26T05:28:50.232Z,11.00
2018-05-26T05:29:50.213Z,11.50
2018-05-26T05:30:50.228Z,11.00
2018-05-26T05:31:50.211Z,11.20
2018-05-26T05:32:50.207Z,10.80
2018-05-26T05:33:50.208Z,11.00
2018-05-26T05:34:50.209Z,11.50
2018-05-26T05:35:52.925Z,10.80
2018-05-26T05:36:50.263Z,11.10
2018-05-26T05:37:50.875Z,10.90
2018-05-26T05:38:50.225Z,10.30
2018-05-26T05:39:50.236Z,11.30
2018-05-26T05:40:50.237Z,11.00
2018-05-26T05:41:50.243Z,11.40
2018-05-26T05:42:50.242Z,10.70
2018-05-26T05:43:50.259Z,11.00
2018-05-26T05:44:50.216Z,10.90
2018-05-26T05:45:50.214Z,11.10
2018-05-26T05:46:50.227Z,10.50
2018-05-26T05:47:50.237Z,10.50
2018-05-26T05:48:50.212Z,11.10
2018-05-26T05:49:50.209Z,10.90
2018-05-26T05:50:50.250Z,10.20
2018-05-26T05:51:50.227Z,11.00
2018-05-26T05:52:50.213Z,10.80
2018-05-26T05:53:50.208Z,10.50
2018-05-26T05:54:50.207Z,10.20
2018-05-26T05:55:50.207Z,10.60
2018-05-26T05:56:50.255Z,10.60
2018-05-26T05:57:50.201Z,10.50
2018-05-26T05:58:50.217Z,10.80
2018-05-26T05:59:50.246Z,11.00
2018-05-26T06:00:50.221Z,10.20
2018-05-26T06:01:50.201Z,9.90
2018-05-26T06:02:50.201Z,10.40
2018-05-26T06:03:50.200Z,10.40
2018-05-26T06:04:50.193Z,10.30
2018-05-26T06:05:50.194Z,9.90
2018-05-26T06:06:50.190Z,10.30
2018-05-26T06:07:50.212Z,9.70
2018-05-26T06:08:50.187Z,9.80
2018-05-26T06:09:50.187Z,9.90
2018-05-26T06:10:50.188Z,10.30
2018-05-26T06:11:50.188Z,10.10
2018-05-26T06:12:50.180Z,10.30
2018-05-26T06:13:50.191Z,10.20
2018-05-26T06:14:50.246Z,10.20
2018-05-26T06:15:50.246Z,10.50
2018-05-26T06:16:50.200Z,9.90
2018-05-26T06:17:50.194Z,9.80
2018-05-26T06:18:50.185Z,10.20
2018-05-26T06:19:50.276Z,9.60
2018-05-26T06:20:50.187Z,9.60
2018-05-26T06:21:50.297Z,9.60
2018-05-26T06:22:50.221Z,9.10
2018-05-26T06:23:50.212Z,9.20
2018-05-26T06:24:50.190Z,9.20
2018-05-26T06:25:50.205Z,9.20
2018-05-26T06:26:50.183Z,9.00
2018-05-26T06:27:50.205Z,8.60
2018-05-26T06:28:50.885Z,9.20
2018-05-26T06:29:50.280Z,8.40
2018-05-26T06:30:50.187Z,8.90
2018-05-26T06:31:50.924Z,8.80
2018-05-26T06:32:50.244Z,8.90
2018-05-26T06:33:50.179Z,8.50
2018-05-26T06:34:50.191Z,8.50
2018-05-26T06:35:50.293Z,8.40
2018-05-26T06:36:50.260Z,8.10
2018-05-26T06:37:50.225Z,8.80
2018-05-26T06:38:50.223Z,8.50
2018-05-26T06:39:50.190Z,8.50
2018-05-26T06:40:50.209Z,8.60
2018-05-26T06:41:50.300Z,9.10
2018-05-26T06:42:50.252Z,8.70
2018-05-26T06:43:50.258Z,9.30
2018-05-26T06:44:50.245Z,9.80
2018-05-26T06:45:50.267Z,9.40
2018-05-26T06:46:50.221Z,8.90
2018-05-26T06:47:50.289Z,9.50
2018-05-26T06:48:50.362Z,9.50
2018-05-26T06:49:50.579Z,8.60
2018-05-26T06:50:50.520Z,8.80
2018-05-26T06:51:50.204Z,9.00
2018-05-26T06:52:50.370Z,9.90
2018-05-26T06:53:51.000Z,9.80
2018-05-26T06:54:50.194Z,9.50
2018-05-26T06:55:50.200Z,9.20
2018-05-26T06:56:50.225Z,9.30
2018-05-26T06:57:50.208Z,9.00
2018-05-26T06:58:51.978Z,8.80
2018-05-26T06:59:50.366Z,9.00
2018-05-26T07:00:50.215Z,8.70
2018-05-26T07:01:50.481Z,9.30
2018-05-26T07:02:50.250Z,9.40
2018-05-26T07:03:50.364Z,9.20
2018-05-26T07:04:53.182Z,9.30
2018-05-26T07:05:50.327Z,9.10
2018-05-26T07:06:50.246Z,9.50
2018-05-26T07:07:50.886Z,9.40
2018-05-26T07:08:50.366Z,8.50
2018-05-26T07:09:50.261Z,8.20
2018-05-26T07:10:50.446Z,8.40
2018-05-26T07:11:50.305Z,8.30
2018-05-26T07:12:50.418Z,8.50
2018-05-26T07:13:50.313Z,8.20
2018-05-26T07:14:50.364Z,8.70
2018-05-26T07:15:50.322Z,8.60
2018-05-26T07:16:50.434Z,8.50
2018-05-26T07:17:50.316Z,8.10
2018-05-26T07:18:50.388Z,7.80
2018-05-26T07:19:50.510Z,8.00
2018-05-26T07:20:50.358Z,8.60
2018-05-26T07:21:50.357Z,8.40
2018-05-26T07:22:50.419Z,8.30
2018-05-26T07:23:50.369Z,7.90
2018-05-26T07:24:50.391Z,8.00
2018-05-26T07:25:50.379Z,7.90
2018-05-26T07:26:50.400Z,8.40
2018-05-26T07:27:50.480Z,7.80
2018-05-26T07:28:50.540Z,7.40
2018-05-26T07:29:50.468Z,7.20
2018-05-26T07:30:50.544Z,7.00
2018-05-26T07:31:50.496Z,7.30
2018-05-26T07:32:50.532Z,6.50
2018-05-26T07:33:51.441Z,6.40
2018-05-26T07:34:50.500Z,6.70
2018-05-26T07:35:50.574Z,6.40
2018-05-26T07:36:50.558Z,6.80
2018-05-26T07:37:50.626Z,5.90
2018-05-26T07:38:50.578Z,6.50
2018-05-26T07:39:50.623Z,6.60
2018-05-26T07:40:50.729Z,6.30
2018-05-26T07:41:51.401Z,6.90
2018-05-26T07:42:50.696Z,6.60
2018-05-26T07:43:50.718Z,5.90
2018-05-26T07:44:50.711Z,6.50
2018-05-26T07:45:50.686Z,6.40
2018-05-26T07:46:50.730Z,6.50
2018-05-26T07:47:50.755Z,6.40
2018-05-26T07:48:50.861Z,6.10
2018-05-26T07:49:50.768Z,6.00
2018-05-26T07:50:50.792Z,6.20
2018-05-26T07:51:50.810Z,5.70
2018-05-26T07:52:50.793Z,5.60
2018-05-26T07:53:50.823Z,5.80
2018-05-26T07:54:50.817Z,5.60
2018-05-26T07:55:51.502Z,5.80
2018-05-26T07:56:50.853Z,5.30
2018-05-26T07:57:50.867Z,5.00
2018-05-26T07:58:50.932Z,5.40
2018-05-26T07:59:51.004Z,5.20
2018-05-26T08:00:50.935Z,5.30
2018-05-26T08:01:50.927Z,5.10
2018-05-26T08:02:50.971Z,5.10
2018-05-26T08:03:50.948Z,5.00
2018-05-26T08:04:50.956Z,4.30
2018-05-26T08:05:50.950Z,4.90
2018-05-26T08:06:50.972Z,4.40
2018-05-26T08:07:50.976Z,4.70
2018-05-26T08:08:50.985Z,4.60
2018-05-26T08:09:50.998Z,5.20
2018-05-26T08:10:51.053Z,5.40
2018-05-26T08:11:51.038Z,5.10
2018-05-26T08:12:51.105Z,5.30
2018-05-26T08:13:51.112Z,4.80
2018-05-26T08:14:51.091Z,4.90
2018-05-26T08:15:51.095Z,5.20
2018-05-26T08:16:51.116Z,4.70
2018-05-26T08:17:51.155Z,4.90
2018-05-26T08:18:51.142Z,4.30
2018-05-26T08:19:51.179Z,4.60
2018-05-26T08:20:51.202Z,4.70
2018-05-26T08:21:51.201Z,4.70
2018-05-26T08:22:51.208Z,4.30
2018-05-26T08:23:51.991Z,4.60
2018-05-26T08:24:51.286Z,4.20
2018-05-26T08:25:51.282Z,4.50
2018-05-26T08:26:51.310Z,4.70
2018-05-26T08:27:51.299Z,4.50
2018-05-26T08:28:51.317Z,4.20
2018-05-26T08:29:51.331Z,4.40
2018-05-26T08:30:51.366Z,4.30
2018-05-26T08:31:51.364Z,4.40
2018-05-26T08:32:51.381Z,4.50
2018-05-26T08:33:51.439Z,4.20
2018-05-26T08:34:51.417Z,4.70
2018-05-26T08:35:51.487Z,4.10
2018-05-26T08:36:51.471Z,4.20
2018-05-26T08:37:51.457Z,4.40
2018-05-26T08:38:51.510Z,3.90
2018-05-26T08:39:51.533Z,3.80
2018-05-26T08:40:51.497Z,4.00
2018-05-26T08:41:51.526Z,3.70
2018-05-26T08:42:51.588Z,3.70
2018-05-26T08:43:51.630Z,3.80
2018-05-26T08:44:51.571Z,4.00
2018-05-26T08:45:51.597Z,3.80
2018-05-26T08:46:51.621Z,4.00
2018-05-26T08:47:51.662Z,4.20
2018-05-26T08:48:51.667Z,3.60
2018-05-26T08:49:51.685Z,4.00
2018-05-26T08:50:51.700Z,3.90
2018-05-26T08:51:51.706Z,3.80
2018-05-26T08:52:51.729Z,3.90
2018-05-26T08:53:51.833Z,3.80
2018-05-26T08:54:51.828Z,3.60
2018-05-26T08:55:51.818Z,3.60
2018-05-26T08:56:51.774Z,3.40
2018-05-26T08:57:51.792Z,3.40
2018-05-26T08:58:51.842Z,4.20
2018-05-26T08:59:51.827Z,3.80
2018-05-26T09:00:51.846Z,3.60
2018-05-26T09:01:51.863Z,3.50
2018-05-26T09:02:51.899Z,3.90
2018-05-26T09:03:51.910Z,3.70
2018-05-26T09:04:51.907Z,3.60
2018-05-26T09:05:51.928Z,3.60
2018-05-26T09:06:51.943Z,3.80
2018-05-26T09:07:51.994Z,3.60
2018-05-26T09:08:51.975Z,3.60
2018-05-26T09:09:52.046Z,3.60
2018-05-26T09:10:52.051Z,3.80
2018-05-26T09:11:52.042Z,4.00
2018-05-26T09:12:52.052Z,3.90
2018-05-26T09:13:52.053Z,4.00
2018-05-26T09:14:52.128Z,3.70
2018-05-26T09:15:52.150Z,3.90
2018-05-26T09:16:52.344Z,3.70
2018-05-26T09:17:52.255Z,3.70
2018-05-26T09:18:52.473Z,3.80
2018-05-26T09:19:52.367Z,4.10
2018-05-26T09:20:52.387Z,3.90
2018-05-26T09:21:52.498Z,3.40
2018-05-26T09:22:52.605Z,3.50
2018-05-26T09:23:52.344Z,3.50
2018-05-26T09:24:52.356Z,3.70
2018-05-26T09:25:52.522Z,3.50
2018-05-26T09:26:52.417Z,3.50
2018-05-26T09:27:52.389Z,3.60
2018-05-26T09:28:52.556Z,3.80
2018-05-26T09:29:52.474Z,3.70
2018-05-26T09:30:52.483Z,3.70
2018-05-26T09:31:52.513Z,3.50
2018-05-26T09:32:52.493Z,3.50
2018-05-26T09:33:52.568Z,3.70
2018-05-26T09:34:52.620Z,3.50
2018-05-26T09:35:52.543Z,3.60
2018-05-26T09:36:52.540Z,3.60
2018-05-26T09:37:52.620Z,3.60
2018-05-26T09:38:52.679Z,4.30
2018-05-26T09:39:52.637Z,4.30
2018-05-26T09:40:52.835Z,4.40
2018-05-26T09:41:52.787Z,4.00
2018-05-26T09:42:52.820Z,4.30
2018-05-26T09:43:52.697Z,4.40
2018-05-26T09:44:52.694Z,4.10
2018-05-26T09:45:52.749Z,3.70
2018-05-26T09:46:52.728Z,4.20
2018-05-26T09:47:52.746Z,4.40
2018-05-26T09:48:52.795Z,4.50
2018-05-26T09:49:52.822Z,4.20
2018-05-26T09:50:52.917Z,4.60
2018-05-26T09:51:52.953Z,4.50
2018-05-26T09:52:52.877Z,4.40
2018-05-26T09:53:52.999Z,4.30
2018-05-26T09:54:52.853Z,4.30
2018-05-26T09:55:52.861Z,4.70
2018-05-26T09:56:52.901Z,4.20
2018-05-26T09:57:52.918Z,4.40
2018-05-26T09:58:52.935Z,4.50
2018-05-26T09:59:53.121Z,4.50
2018-05-26T10:00:53.015Z,4.20
2018-05-26T10:01:53.073Z,4.20
2018-05-26T10:02:53.009Z,5.20
2018-05-26T10:03:53.035Z,4.40
2018-05-26T10:04:53.105Z,4.60
2018-05-26T10:05:53.130Z,4.50
2018-05-26T10:06:53.148Z,4.40
2018-05-26T10:07:53.290Z,4.50
2018-05-26T10:08:53.119Z,4.00
2018-05-26T10:09:53.312Z,4.30
2018-05-26T10:10:53.094Z,4.40
2018-05-26T10:11:53.181Z,4.40
2018-05-26T10:12:53.211Z,4.50
2018-05-26T10:13:53.199Z,4.10
2018-05-26T10:14:53.244Z,3.90
2018-05-26T10:15:53.219Z,4.00
2018-05-26T10:16:53.425Z,4.10
2018-05-26T10:17:53.576Z,3.90
2018-05-26T10:18:53.571Z,3.80
2018-05-26T10:19:53.963Z,3.90
2018-05-26T10:20:53.440Z,3.60
2018-05-26T10:21:53.560Z,3.80
2018-05-26T10:22:53.390Z,3.70
2018-05-26T10:23:53.460Z,3.70
2018-05-26T10:24:53.479Z,3.60
2018-05-26T10:25:53.730Z,3.70
2018-05-26T10:26:53.475Z,3.60
2018-05-26T10:27:53.581Z,3.40
2018-05-26T10:28:53.475Z,3.10
2018-05-26T10:29:53.640Z,3.30
2018-05-26T10:30:53.579Z,3.30
2018-05-26T10:31:53.650Z,3.50
2018-05-26T10:32:53.607Z,3.50
2018-05-26T10:33:53.633Z,3.50
2018-05-26T10:34:53.605Z,3.20
2018-05-26T10:35:53.683Z,3.30
2018-05-26T10:36:53.596Z,3.30
2018-05-26T10:37:53.584Z,3.40
2018-05-26T10:38:53.596Z,3.20
2018-05-26T10:39:53.571Z,3.00
2018-05-26T10:40:53.589Z,3.10
2018-05-26T10:41:53.606Z,3.20
2018-05-26T10:42:53.622Z,3.20
2018-05-26T10:43:53.635Z,3.10
2018-05-26T10:44:53.659Z,3.20
2018-05-26T10:45:53.682Z,3.00
2018-05-26T10:46:54.401Z,3.10
2018-05-26T10:47:53.718Z,3.30
2018-05-26T10:48:53.733Z,3.30
2018-05-26T10:49:53.748Z,3.20
2018-05-26T10:50:53.780Z,3.20
2018-05-26T10:51:53.807Z,3.40
2018-05-26T10:52:53.838Z,2.80
2018-05-26T10:53:53.907Z,3.00
2018-05-26T10:54:53.857Z,3.00
2018-05-26T10:55:53.928Z,3.10
2018-05-26T10:56:53.907Z,3.00
2018-05-26T10:57:53.913Z,3.20
2018-05-26T10:58:53.954Z,2.80
2018-05-26T10:59:53.989Z,2.90
2018-05-26T11:00:53.993Z,2.90
2018-05-26T11:01:53.999Z,2.60
2018-05-26T11:02:54.031Z,2.60
2018-05-26T11:03:54.034Z,2.90
2018-05-26T11:04:54.090Z,2.70
2018-05-26T11:05:54.121Z,2.90
2018-05-26T11:06:54.082Z,3.00
2018-05-26T11:07:54.109Z,2.90
2018-05-26T11:08:54.124Z,3.00
2018-05-26T11:09:54.150Z,2.70
2018-05-26T11:10:54.165Z,3.00
2018-05-26T11:11:54.227Z,2.80
2018-05-26T11:12:54.239Z,2.70
2018-05-26T11:13:54.232Z,3.10
2018-05-26T11:14:54.258Z,3.10
2018-05-26T11:15:54.310Z,3.10
2018-05-26T11:16:54.302Z,3.20
2018-05-26T11:17:54.491Z,3.00
2018-05-26T11:18:54.355Z,2.90
2018-05-26T11:19:54.340Z,2.90
2018-05-26T11:20:54.365Z,2.90
2018-05-26T11:21:54.379Z,3.10
2018-05-26T11:22:54.411Z,3.00
2018-05-26T11:23:54.456Z,2.80
2018-05-26T11:24:54.546Z,2.80
2018-05-26T11:25:54.464Z,2.80
2018-05-26T11:26:54.484Z,2.80
2018-05-26T11:27:54.500Z,2.90
2018-05-26T11:28:54.582Z,2.70
2018-05-26T11:29:54.771Z,2.80
2018-05-26T11:30:54.608Z,2.70
2018-05-26T11:31:54.576Z,2.80
2018-05-26T11:32:54.590Z,2.80
2018-05-26T11:33:54.636Z,2.70
2018-05-26T11:34:54.639Z,3.10
2018-05-26T11:35:54.697Z,2.50
2018-05-26T11:36:54.663Z,2.60
2018-05-26T11:37:54.702Z,2.60
2018-05-26T11:38:54.802Z,2.70
2018-05-26T11:39:54.735Z,2.70
2018-05-26T11:40:54.824Z,2.90
2018-05-26T11:41:54.762Z,2.90
2018-05-26T11:42:54.830Z,2.80
2018-05-26T11:43:54.797Z,2.90
2018-05-26T11:44:54.824Z,2.80
2018-05-26T11:45:54.830Z,2.80
2018-05-26T11:46:54.868Z,2.70
2018-05-26T11:47:54.909Z,2.90
2018-05-26T11:48:54.902Z,2.70
2018-05-26T11:49:54.937Z,3.00
2018-05-26T11:50:54.931Z,2.90
2018-05-26T11:51:54.944Z,3.00
2018-05-26T11:52:54.993Z,2.60
2018-05-26T11:53:55.028Z,2.70
2018-05-26T11:54:55.043Z,2.70
2018-05-26T11:55:55.057Z,2.60
2018-05-26T11:56:55.068Z,2.50
2018-05-26T11:57:55.056Z,2.60
2018-05-26T11:58:55.079Z,2.50
2018-05-26T11:59:55.116Z,2.60
2018-05-26T12:00:55.105Z,2.50
2018-05-26T12:01:55.170Z,2.70
2018-05-26T12:02:55.146Z,2.50
2018-05-26T12:03:55.190Z,2.60
2018-05-26T12:04:55.175Z,2.50
2018-05-26T12:05:55.210Z,2.30
2018-05-26T12:06:55.216Z,2.30
2018-05-26T12:07:55.236Z,2.30
2018-05-26T12:08:55.258Z,2.40
2018-05-26T12:09:55.268Z,2.30
2018-05-26T12:10:55.336Z,2.30
2018-05-26T12:11:55.304Z,2.60
2018-05-26T12:12:55.388Z,2.50
2018-05-26T12:13:55.341Z,2.50
2018-05-26T12:14:55.361Z,2.40
2018-05-26T12:15:55.394Z,2.60
2018-05-26T12:16:55.391Z,2.20
2018-05-26T12:17:55.406Z,2.20
2018-05-26T12:18:55.428Z,2.20
2018-05-26T12:19:55.435Z,2.40
2018-05-26T12:20:55.465Z,2.70
2018-05-26T12:21:55.543Z,2.70
2018-05-26T12:22:55.485Z,2.50
2018-05-26T12:23:55.512Z,2.50
2018-05-26T12:24:55.531Z,2.40
2018-05-26T12:25:55.549Z,2.50
2018-05-26T12:26:55.585Z,2.40
2018-05-26T12:27:55.574Z,2.50
2018-05-26T12:28:55.597Z,2.60
2018-05-26T12:29:55.613Z,2.50
2018-05-26T12:30:55.675Z,2.40
2018-05-26T12:31:55.660Z,2.50
2018-05-26T12:32:55.657Z,2.50
2018-05-26T12:33:55.709Z,2.50
2018-05-26T12:34:55.690Z,2.30
2018-05-26T12:35:55.709Z,2.50
2018-05-26T12:36:55.745Z,2.60
2018-05-26T12:37:55.740Z,2.50
2018-05-26T12:38:55.757Z,2.20
2018-05-26T12:39:55.765Z,2.30
2018-05-26T12:40:55.882Z,2.20
2018-05-26T12:41:55.830Z,2.40
2018-05-26T12:42:55.835Z,2.40
2018-05-26T12:43:55.833Z,2.30
2018-05-26T12:44:55.922Z,2.50
2018-05-26T12:45:55.850Z,2.60
2018-05-26T12:46:55.965Z,2.50
2018-05-26T12:47:55.922Z,2.40
2018-05-26T12:48:55.915Z,2.30
2018-05-26T12:49:55.902Z,2.50
2018-05-26T12:50:56.554Z,2.20
2018-05-26T12:51:55.956Z,2.50
2018-05-26T12:52:55.898Z,2.40
2018-05-26T12:53:55.954Z,2.40
2018-05-26T12:54:55.935Z,2.90
2018-05-26T12:55:55.931Z,2.60
2018-05-26T12:56:55.957Z,3.30
2018-05-26T12:57:55.971Z,2.90
2018-05-26T12:58:55.989Z,2.90
2018-05-26T12:59:55.984Z,2.70
2018-05-26T13:00:55.981Z,2.80
2018-05-26T13:01:55.985Z,2.70
2018-05-26T13:02:55.973Z,2.70
2018-05-26T13:03:56.006Z,2.60
2018-05-26T13:04:56.091Z,3.00
2018-05-26T13:05:56.014Z,2.60
2018-05-26T13:06:56.120Z,2.70
2018-05-26T13:07:56.099Z,2.90
2018-05-26T13:08:56.179Z,2.80
2018-05-26T13:09:56.062Z,2.70
2018-05-26T13:10:56.028Z,2.60
2018-05-26T13:12:56.081Z,2.80
2018-05-26T13:13:56.404Z,2.60
2018-05-26T13:14:56.060Z,2.70
2018-05-26T13:15:56.112Z,2.70
2018-05-26T13:16:56.138Z,2.70
2018-05-26T13:17:56.119Z,2.80
2018-05-26T13:19:17.156Z,2.80
2018-05-26T13:19:56.126Z,2.60
2018-05-26T13:20:56.111Z,2.50
2018-05-26T13:21:56.092Z,2.50
2018-05-26T13:22:56.154Z,3.10
2018-05-26T13:23:56.099Z,2.70
2018-05-26T13:25:17.180Z,2.60
2018-05-26T13:25:56.173Z,2.80
2018-05-26T13:26:56.126Z,2.80
2018-05-26T13:27:56.180Z,2.60
2018-05-26T13:28:56.187Z,2.60
2018-05-26T13:29:56.121Z,2.80
2018-05-26T13:31:17.167Z,2.80
2018-05-26T13:31:56.132Z,2.70
2018-05-26T13:32:56.135Z,2.80
2018-05-26T13:33:56.163Z,3.00
2018-05-26T13:34:56.161Z,2.90
2018-05-26T13:35:56.160Z,2.70
2018-05-26T13:37:17.158Z,2.80
2018-05-26T13:37:56.149Z,2.90
2018-05-26T13:38:56.171Z,2.70
2018-05-26T13:39:56.934Z,2.90
2018-05-26T13:40:56.196Z,2.80
2018-05-26T13:41:56.176Z,2.60
2018-05-26T13:43:17.204Z,2.60
2018-05-26T13:43:56.226Z,2.60
2018-05-26T13:44:56.213Z,2.80